Time;durP1;ratioP1;P1;durP2;ratioP2;P2;SDS_P1;SDS_P2;PMS_P1;PMS_P2;Temp;Humidity;BMP_temperature;BMP_pressure;BME280_temperature;BME280_humidity;BME280_pressure;Samples;Min_cycle;Max_cycle;Signal;HPM_P1;HPM_P2
2021/09/01 00:00:51;;;;;;;17.10;9.07;;;;;;;;;;5097752;28;20482;-55
2021/09/01 00:03:18;;;;;;;15.93;9.10;;;;;;;;;;5097450;28;20447;-48
2021/09/01 00:05:47;;;;;;;19.40;9.07;;;;;;;;;;5097217;28;20445;-53
2021/09/01 00:08:25;;;;;;;17.90;8.87;;;;;;;;;;5097230;28;20483;-54
2021/09/01 00:10:53;;;;;;;23.67;9.70;;;;;;;;;;5109294;28;20487;-50
2021/09/01 00:13:20;;;;;;;26.47;9.10;;;;;;;;;;5117867;28;20439;-51
2021/09/01 00:15:57;;;;;;;14.37;9.23;;;;;;;;;;5117653;28;20447;-49
2021/09/01 00:18:24;;;;;;;19.70;9.13;;;;;;;;;;5117272;28;20472;-53
2021/09/01 00:20:52;;;;;;;18.17;10.90;;;;;;;;;;5117813;28;20443;-53
2021/09/01 00:23:27;;;;;;;17.30;9.87;;;;;;;;;;5117401;28;20461;-49
2021/09/01 00:25:55;;;;;;;17.00;9.83;;;;;;;;;;5117497;28;20469;-53
2021/09/01 00:28:22;;;;;;;15.90;9.80;;;;;;;;;;5117472;28;20509;-50
2021/09/01 00:30:58;;;;;;;24.00;10.87;;;;;;;;;;5117518;28;20443;-53
2021/09/01 00:33:25;;;;;;;17.20;10.23;;;;;;;;;;5117376;28;20442;-55
2021/09/01 00:35:54;;;;;;;25.23;10.67;;;;;;;;;;5116948;28;20497;-52
2021/09/01 00:38:37;;;;;;;19.80;10.90;;;;;;;;;;5117412;28;20516;-58
2021/09/01 00:41:04;;;;;;;22.50;11.70;;;;;;;;;;5117283;28;20462;-51
2021/09/01 00:43:32;;;;;;;19.00;10.03;;;;;;;;;;5116775;28;20443;-54
2021/09/01 00:46:03;;;;;;;23.73;10.80;;;;;;;;;;5117533;28;20459;-47
2021/09/01 00:48:31;;;;;;;19.10;10.97;;;;;;;;;;5116933;28;20494;-52
2021/09/01 00:50:59;;;;;;;21.03;9.83;;;;;;;;;;5117405;28;20431;-56
2021/09/01 00:53:34;;;;;;;18.50;10.70;;;;;;;;;;5117085;28;20435;-53
2021/09/01 00:56:01;;;;;;;21.77;10.87;;;;;;;;;;5117083;28;20443;-51
2021/09/01 00:58:34;;;;;;;22.23;10.20;;;;;;;;;;5117216;28;20489;-51
2021/09/01 01:01:16;;;;;;;20.97;9.17;;;;;;;;;;5117587;28;20447;-51
2021/09/01 01:03:44;;;;;;;17.43;9.43;;;;;;;;;;5117538;28;20474;-52
2021/09/01 01:06:12;;;;;;;13.97;9.20;;;;;;;;;;5117433;28;20450;-54
2021/09/01 01:09:17;;;;;;;22.47;10.53;;;;;;;;;;5121375;28;20505;-52
2021/09/01 01:11:59;;;;;;;21.27;10.20;;;;;;;;;;5100597;28;20443;-54
2021/09/01 01:14:46;;;;;;;20.63;9.80;;;;;;;;;;5100532;28;20517;-52
2021/09/01 01:17:15;;;;;;;18.10;10.80;;;;;;;;;;5100895;28;20450;-50
2021/09/01 01:19:43;;;;;;;16.30;9.43;;;;;;;;;;5100662;28;20479;-51
2021/09/01 01:25:29;;;;;;;17.70;11.60;;;;;;;;;;5115506;28;20461;-54
2021/09/01 01:27:57;;;;;;;18.77;9.50;;;;;;;;;;5120865;28;20487;-57
2021/09/01 01:30:39;;;;;;;22.70;11.63;;;;;;;;;;5110183;28;20494;-52
2021/09/01 01:33:07;;;;;;;18.33;9.50;;;;;;;;;;5114609;28;20973;-50
2021/09/01 01:35:35;;;;;;;23.30;9.57;;;;;;;;;;5120757;28;20489;-50
2021/09/01 01:38:04;;;;;;;23.50;10.27;;;;;;;;;;5120581;28;20465;-50
2021/09/01 01:40:33;;;;;;;18.80;9.00;;;;;;;;;;5120218;28;20443;-55
2021/09/01 01:43:00;;;;;;;18.17;9.73;;;;;;;;;;5121013;28;20435;-54
2021/09/01 01:45:46;;;;;;;18.70;10.90;;;;;;;;;;5120331;28;20494;-50
2021/09/01 01:48:14;;;;;;;18.70;11.30;;;;;;;;;;5120236;28;20520;-49
2021/09/01 01:50:42;;;;;;;23.47;10.90;;;;;;;;;;5120069;28;20455;-53
2021/09/01 01:56:15;;;;;;;21.20;10.80;;;;;;;;;;5118428;28;20508;-52
2021/09/01 01:58:42;;;;;;;21.77;10.83;;;;;;;;;;5120536;28;20451;-52
2021/09/01 02:01:09;;;;;;;21.97;12.47;;;;;;;;;;5120195;28;20447;-50
2021/09/01 02:03:37;;;;;;;18.93;11.23;;;;;;;;;;5120326;28;20439;-49
2021/09/01 02:06:23;;;;;;;23.20;11.10;;;;;;;;;;5120211;28;20450;-54
2021/09/01 02:08:52;;;;;;;25.17;11.13;;;;;;;;;;5119968;28;20517;-55
2021/09/01 02:11:20;;;;;;;14.77;10.07;;;;;;;;;;5120230;28;20532;-54
2021/09/01 02:14:01;;;;;;;21.10;10.20;;;;;;;;;;5120081;28;20474;-49
2021/09/01 02:16:29;;;;;;;19.07;12.10;;;;;;;;;;5102595;28;20450;-57
2021/09/01 02:18:57;;;;;;;15.27;9.30;;;;;;;;;;5119587;28;20446;-56
2021/09/01 02:21:49;;;;;;;24.97;10.70;;;;;;;;;;5120045;28;20462;-57
2021/09/01 02:24:16;;;;;;;21.57;11.77;;;;;;;;;;5119928;28;20435;-53
2021/09/01 02:26:45;;;;;;;20.90;10.60;;;;;;;;;;5120184;28;20423;-52
2021/09/01 02:29:13;;;;;;;22.40;9.67;;;;;;;;;;5119547;28;20448;-49
2021/09/01 02:31:40;;;;;;;16.97;10.40;;;;;;;;;;5119392;28;20431;-53
2021/09/01 02:34:08;;;;;;;24.50;11.40;;;;;;;;;;5119449;28;20447;-57
2021/09/01 02:36:40;;;;;;;16.27;11.60;;;;;;;;;;5119926;28;20459;-50
2021/09/01 02:39:08;;;;;;;27.17;13.53;;;;;;;;;;5119428;28;20451;-51
2021/09/01 02:41:35;;;;;;;22.53;10.67;;;;;;;;;;5119679;28;20466;-54
2021/09/01 02:44:05;;;;;;;19.80;10.57;;;;;;;;;;5119676;28;20443;-52
2021/09/01 02:46:32;;;;;;;20.27;10.70;;;;;;;;;;5119638;28;20451;-47
2021/09/01 02:49:00;;;;;;;25.73;12.60;;;;;;;;;;5119593;28;20556;-51
2021/09/01 02:51:34;;;;;;;17.97;10.13;;;;;;;;;;5119156;28;20489;-54
2021/09/01 02:54:02;;;;;;;24.60;12.07;;;;;;;;;;5119373;28;20455;-51
2021/09/01 02:56:30;;;;;;;19.43;11.30;;;;;;;;;;5119359;28;20471;-56
2021/09/01 03:02:14;;;;;;;19.07;10.80;;;;;;;;;;5119302;28;20394;-47
2021/09/01 03:04:42;;;;;;;18.93;11.40;;;;;;;;;;5117301;28;20439;-49
2021/09/01 03:07:11;;;;;;;27.13;11.70;;;;;;;;;;5118887;28;20436;-48
2021/09/01 03:09:49;;;;;;;17.87;9.70;;;;;;;;;;5118918;28;20447;-51
2021/09/01 03:12:16;;;;;;;15.90;10.10;;;;;;;;;;5118752;28;20439;-57
2021/09/01 03:14:44;;;;;;;28.27;13.07;;;;;;;;;;5118747;28;20451;-56
2021/09/01 03:17:27;;;;;;;18.90;10.90;;;;;;;;;;5118935;28;20513;-50
2021/09/01 03:19:56;;;;;;;25.50;13.33;;;;;;;;;;5118863;28;20489;-47
2021/09/01 03:22:23;;;;;;;26.63;10.70;;;;;;;;;;5119010;28;20436;-53
2021/09/01 03:24:53;;;;;;;19.20;11.40;;;;;;;;;;5118559;28;20451;-51
2021/09/01 03:27:20;;;;;;;28.13;11.87;;;;;;;;;;5133630;28;20443;-54
2021/09/01 03:29:48;;;;;;;19.43;11.90;;;;;;;;;;5138359;28;20473;-51
2021/09/01 03:32:24;;;;;;;22.97;12.23;;;;;;;;;;5139170;28;20423;-55
2021/09/01 03:34:52;;;;;;;22.50;10.83;;;;;;;;;;5139227;28;20487;-49
2021/09/01 03:37:20;;;;;;;29.07;12.50;;;;;;;;;;5139094;28;20427;-49
2021/09/01 03:42:51;;;;;;;26.97;11.87;;;;;;;;;;5097873;28;20438;-57
2021/09/01 03:45:18;;;;;;;27.57;12.33;;;;;;;;;;5098039;28;20514;-54
2021/09/01 03:47:46;;;;;;;16.50;10.60;;;;;;;;;;5097889;28;20534;-53
2021/09/01 03:50:14;;;;;;;19.33;10.40;;;;;;;;;;5098042;28;20474;-60
2021/09/01 03:53:13;;;;;;;20.93;12.30;;;;;;;;;;5097686;28;20417;-54
2021/09/01 03:55:42;;;;;;;22.03;10.90;;;;;;;;;;5097593;28;20493;-58
2021/09/01 03:58:11;;;;;;;19.50;11.93;;;;;;;;;;5097439;28;20436;-52
2021/09/01 04:00:48;;;;;;;23.03;10.67;;;;;;;;;;5097520;28;20445;-52
2021/09/01 04:03:16;;;;;;;20.13;11.47;;;;;;;;;;5097843;28;20479;-57
2021/09/01 04:05:46;;;;;;;17.47;10.27;;;;;;;;;;5097667;28;20440;-50
2021/09/01 04:08:17;;;;;;;22.73;10.60;;;;;;;;;;5097516;28;20480;-55
2021/09/01 04:10:45;;;;;;;16.67;10.40;;;;;;;;;;5097428;28;20444;-50
2021/09/01 04:13:13;;;;;;;21.90;10.00;;;;;;;;;;5115811;28;20489;-53
2021/09/01 04:15:54;;;;;;;17.40;10.57;;;;;;;;;;5117570;28;20447;-54
2021/09/01 04:18:21;;;;;;;19.30;9.90;;;;;;;;;;5097107;28;20436;-55
2021/09/01 04:20:48;;;;;;;18.40;10.57;;;;;;;;;;5096818;28;20456;-56
2021/09/01 04:23:19;;;;;;;14.70;8.80;;;;;;;;;;5097445;28;20432;-58
2021/09/01 04:25:48;;;;;;;22.13;7.63;;;;;;;;;;5096648;28;20537;-59
2021/09/01 04:28:18;;;;;;;21.47;9.87;;;;;;;;;;5096856;28;20475;-49
2021/09/01 04:33:50;;;;;;;17.40;9.73;;;;;;;;;;5117430;28;20430;-56
2021/09/01 04:36:20;;;;;;;22.03;9.80;;;;;;;;;;5116672;28;20470;-56
2021/09/01 04:38:55;;;;;;;22.53;9.47;;;;;;;;;;5116421;28;20498;-53
2021/09/01 04:41:31;;;;;;;21.30;10.73;;;;;;;;;;5116826;28;20443;-54
2021/09/01 04:46:51;;;;;;;16.50;9.17;;;;;;;;;;5116690;28;20450;-54
2021/09/01 04:49:51;;;;;;;17.23;9.17;;;;;;;;;;5099620;28;20486;-58
2021/09/01 04:52:20;;;;;;;18.23;9.53;;;;;;;;;;5116511;28;20454;-51
2021/09/01 04:54:49;;;;;;;17.03;8.43;;;;;;;;;;5109173;28;20472;-57
2021/09/01 05:00:24;;;;;;;14.13;9.60;;;;;;;;;;5129941;28;20473;-47
2021/09/01 05:02:52;;;;;;;18.30;8.60;;;;;;;;;;5136921;28;20455;-59
2021/09/01 05:05:21;;;;;;;19.60;9.53;;;;;;;;;;5136539;28;20555;-58
2021/09/01 05:07:49;;;;;;;15.03;9.73;;;;;;;;;;5107924;28;20488;-58
2021/09/01 05:10:20;;;;;;;21.53;8.90;;;;;;;;;;5075821;28;20457;-54
2021/09/01 05:13:27;;;;;;;18.40;8.20;;;;;;;;;;5076334;28;20456;-52
2021/09/01 05:15:57;;;;;;;18.90;7.57;;;;;;;;;;5102834;28;20503;-53
2021/09/01 05:18:25;;;;;;;17.63;9.40;;;;;;;;;;5116419;28;20473;-52
2021/09/01 05:21:00;;;;;;;19.50;8.43;;;;;;;;;;5106681;28;20460;-56
2021/09/01 05:23:45;;;;;;;16.50;6.73;;;;;;;;;;5123929;28;20469;-51
2021/09/01 05:26:17;;;;;;;12.90;7.20;;;;;;;;;;5126612;28;20477;-55
2021/09/01 05:28:47;;;;;;;17.27;7.03;;;;;;;;;;5115721;28;20509;-54
2021/09/01 05:31:21;;;;;;;18.40;8.87;;;;;;;;;;5121339;28;20450;-52
2021/09/01 05:33:54;;;;;;;17.27;7.10;;;;;;;;;;5136659;28;20435;-51
2021/09/01 05:36:22;;;;;;;12.40;6.60;;;;;;;;;;5135143;28;20442;-55
2021/09/01 05:38:50;;;;;;;15.00;6.73;;;;;;;;;;5136788;28;20462;-46
2021/09/01 05:41:18;;;;;;;15.73;7.50;;;;;;;;;;5135989;28;20434;-51
2021/09/01 05:43:48;;;;;;;15.17;6.97;;;;;;;;;;5136422;28;20515;-57
2021/09/01 05:46:20;;;;;;;15.33;7.30;;;;;;;;;;5136477;28;20502;-54
2021/09/01 05:51:52;;;;;;;18.30;7.40;;;;;;;;;;5109051;28;20478;-52
2021/09/01 05:54:20;;;;;;;12.77;8.30;;;;;;;;;;5089001;28;20448;-55
2021/09/01 05:57:06;;;;;;;14.87;8.10;;;;;;;;;;5097690;28;20458;-55
2021/09/01 05:59:43;;;;;;;12.47;8.27;;;;;;;;;;5097310;28;20455;-58
2021/09/01 06:05:19;;;;;;;19.20;6.93;;;;;;;;;;5080477;28;20475;-58
2021/09/01 06:07:52;;;;;;;14.27;8.00;;;;;;;;;;5078826;28;20460;-51
2021/09/01 06:10:22;;;;;;;17.63;8.37;;;;;;;;;;5086069;28;20447;-53
2021/09/01 06:12:53;;;;;;;16.77;8.60;;;;;;;;;;5098853;28;20466;-52
2021/09/01 06:15:21;;;;;;;12.13;7.57;;;;;;;;;;5090727;28;20483;-55
2021/09/01 06:18:15;;;;;;;20.97;9.70;;;;;;;;;;5091741;28;20455;-53
2021/09/01 06:20:48;;;;;;;15.60;9.07;;;;;;;;;;5080844;28;20475;-53
2021/09/01 06:23:16;;;;;;;17.83;9.47;;;;;;;;;;5098294;28;20512;-54
2021/09/01 06:25:44;;;;;;;13.60;9.07;;;;;;;;;;5104666;28;20432;-53
2021/09/01 06:28:12;;;;;;;24.17;11.13;;;;;;;;;;5098643;28;20428;-54
2021/09/01 06:30:40;;;;;;;16.97;8.67;;;;;;;;;;5077994;28;20441;-52
2021/09/01 06:33:08;;;;;;;17.87;8.80;;;;;;;;;;5087068;28;20448;-52
2021/09/01 06:35:36;;;;;;;17.87;10.07;;;;;;;;;;5097893;28;20449;-54
2021/09/01 06:38:25;;;;;;;17.43;10.27;;;;;;;;;;5097845;28;20451;-53
2021/09/01 06:40:53;;;;;;;12.80;7.83;;;;;;;;;;5077287;28;20471;-55
2021/09/01 06:43:21;;;;;;;16.90;8.67;;;;;;;;;;5077944;28;20481;-54
2021/09/01 06:46:06;;;;;;;16.43;10.10;;;;;;;;;;5077359;28;20495;-52
2021/09/01 06:48:34;;;;;;;18.53;9.13;;;;;;;;;;5078100;28;20481;-51
2021/09/01 06:51:02;;;;;;;17.00;9.20;;;;;;;;;;5077815;28;20453;-48
2021/09/01 06:56:37;;;;;;;15.37;9.57;;;;;;;;;;5097948;28;20571;-53
2021/09/01 06:59:11;;;;;;;17.30;9.93;;;;;;;;;;5118984;27;20444;-56
2021/09/01 07:01:50;;;;;;;21.90;9.60;;;;;;;;;;5118522;28;20534;-53
2021/09/01 07:04:20;;;;;;;18.23;9.37;;;;;;;;;;5101578;28;20490;-55
2021/09/01 07:06:50;;;;;;;21.40;10.90;;;;;;;;;;5117893;28;20435;-59
2021/09/01 07:09:18;;;;;;;16.40;9.20;;;;;;;;;;5116280;28;20487;-52
2021/09/01 07:11:47;;;;;;;18.57;10.37;;;;;;;;;;5097497;28;20497;-51
2021/09/01 07:14:17;;;;;;;20.27;10.03;;;;;;;;;;5107304;28;20535;-50
2021/09/01 07:16:45;;;;;;;18.87;8.97;;;;;;;;;;5128243;28;20478;-51
2021/09/01 07:19:13;;;;;;;12.87;8.23;;;;;;;;;;5138081;28;20487;-54
2021/09/01 07:21:41;;;;;;;18.60;9.13;;;;;;;;;;5137899;28;20454;-54
2021/09/01 07:24:10;;;;;;;22.23;10.47;;;;;;;;;;5137465;28;20497;-51
2021/09/01 07:26:41;;;;;;;14.90;9.10;;;;;;;;;;5137835;28;20434;-53
2021/09/01 07:29:10;;;;;;;15.13;8.90;;;;;;;;;;5137783;28;20482;-52
2021/09/01 07:34:48;;;;;;;22.50;11.60;;;;;;;;;;5131333;28;20483;-54
2021/09/01 07:43:01;;;;;;;18.53;10.20;;;;;;;;;;5097002;28;20515;-53
2021/09/01 07:45:37;;;;;;;19.80;11.77;;;;;;;;;;5096701;28;20519;-52
2021/09/01 07:48:09;;;;;;;20.40;12.27;;;;;;;;;;5096815;28;20459;-57
2021/09/01 07:50:38;;;;;;;20.40;12.90;;;;;;;;;;5096961;28;20504;-59
2021/09/01 07:56:10;;;;;;;19.60;12.10;;;;;;;;;;5096506;28;20436;-55
2021/09/01 07:58:38;;;;;;;22.03;12.93;;;;;;;;;;5116165;28;20540;-55
2021/09/01 08:01:22;;;;;;;26.30;13.40;;;;;;;;;;5117458;28;20474;-47
2021/09/01 08:03:50;;;;;;;22.20;14.60;;;;;;;;;;5117784;28;20459;-51
2021/09/01 08:06:36;;;;;;;28.13;14.67;;;;;;;;;;5117333;28;20436;-54
2021/09/01 08:09:04;;;;;;;20.63;14.47;;;;;;;;;;5119693;27;20462;-52
2021/09/01 08:11:43;;;;;;;19.93;12.93;;;;;;;;;;5137662;27;20438;-50
2021/09/01 08:17:17;;;;;;;29.87;13.37;;;;;;;;;;5136894;27;20417;-52
2021/09/01 08:19:47;;;;;;;22.60;13.90;;;;;;;;;;5115334;28;20428;-55
2021/09/01 08:22:15;;;;;;;23.93;14.90;;;;;;;;;;5100317;28;20473;-52
2021/09/01 08:25:06;;;;;;;22.10;14.40;;;;;;;;;;5116848;28;20446;-57
2021/09/01 08:27:37;;;;;;;24.70;13.37;;;;;;;;;;5116214;28;20439;-55
2021/09/01 08:30:08;;;;;;;19.47;12.17;;;;;;;;;;5115947;28;20910;-55
2021/09/01 08:35:43;;;;;;;19.90;14.37;;;;;;;;;;5082235;28;20494;-59
2021/09/01 08:38:10;;;;;;;30.07;12.93;;;;;;;;;;5075514;28;20516;-56
2021/09/01 08:41:22;;;;;;;20.80;13.00;;;;;;;;;;5076496;28;20765;-52
2021/09/01 08:43:49;;;;;;;23.43;12.00;;;;;;;;;;5086249;28;20476;-54
2021/09/01 08:46:17;;;;;;;20.03;13.40;;;;;;;;;;5095308;28;20452;-58
2021/09/01 08:48:58;;;;;;;29.30;12.17;;;;;;;;;;5096041;28;20470;-50
2021/09/01 08:51:40;;;;;;;17.63;12.90;;;;;;;;;;5095703;28;20474;-53
2021/09/01 08:54:34;;;;;;;19.17;11.70;;;;;;;;;;5095305;28;20475;-52
2021/09/01 08:57:04;;;;;;;21.60;13.63;;;;;;;;;;5094269;28;20696;-53
2021/09/01 08:59:32;;;;;;;25.80;13.67;;;;;;;;;;5075856;28;20449;-49
2021/09/01 09:02:11;;;;;;;20.57;12.67;;;;;;;;;;5079741;28;20503;-57
2021/09/01 09:04:42;;;;;;;22.60;11.97;;;;;;;;;;5095894;28;20412;-53
2021/09/01 09:07:17;;;;;;;24.70;12.97;;;;;;;;;;5095757;28;20448;-57
2021/09/01 09:09:54;;;;;;;18.90;12.73;;;;;;;;;;5087455;28;20475;-50
2021/09/01 09:12:43;;;;;;;24.77;12.80;;;;;;;;;;5074962;28;20457;-49
2021/09/01 09:15:16;;;;;;;19.97;12.20;;;;;;;;;;5073477;28;20475;-50
2021/09/01 09:17:44;;;;;;;20.57;12.20;;;;;;;;;;5075227;28;20488;-53
2021/09/01 09:20:13;;;;;;;21.10;11.77;;;;;;;;;;5058115;28;20449;-55
2021/09/01 09:22:53;;;;;;;23.87;11.97;;;;;;;;;;5075659;28;20453;-53
2021/09/01 09:25:25;;;;;;;17.90;12.07;;;;;;;;;;5074845;28;20456;-51
2021/09/01 09:27:53;;;;;;;24.83;13.47;;;;;;;;;;5076395;28;20467;-50
2021/09/01 09:30:30;;;;;;;21.17;13.30;;;;;;;;;;5078939;28;20488;-50
2021/09/01 09:33:00;;;;;;;22.67;12.00;;;;;;;;;;5087760;28;20516;-54
2021/09/01 09:35:30;;;;;;;20.50;13.67;;;;;;;;;;5079564;28;20476;-52
2021/09/01 09:38:22;;;;;;;23.07;12.63;;;;;;;;;;5079337;28;20461;-53
2021/09/01 09:40:53;;;;;;;23.70;13.13;;;;;;;;;;5095863;28;20538;-48
2021/09/01 09:43:23;;;;;;;27.80;16.07;;;;;;;;;;5099612;28;20450;-55
2021/09/01 09:46:02;;;;;;;23.00;13.70;;;;;;;;;;5089294;28;20463;-49
2021/09/01 09:48:40;;;;;;;30.87;20.50;;;;;;;;;;5099839;28;20440;-55
2021/09/01 09:51:09;;;;;;;27.50;19.83;;;;;;;;;;5099207;28;20464;-49
2021/09/01 09:53:38;;;;;;;40.60;25.60;;;;;;;;;;5098956;28;20436;-55
2021/09/01 09:56:22;;;;;;;30.90;23.27;;;;;;;;;;5099142;28;20460;-55
2021/09/01 10:02:06;;;;;;;37.93;24.83;;;;;;;;;;5096991;28;20547;-52
2021/09/01 10:04:51;;;;;;;39.27;29.10;;;;;;;;;;5078179;28;20460;-53
2021/09/01 10:07:19;;;;;;;38.30;26.33;;;;;;;;;;5094840;28;20471;-53
2021/09/01 10:09:46;;;;;;;38.80;24.57;;;;;;;;;;5098667;28;20479;-60
2021/09/01 10:12:14;;;;;;;37.43;25.60;;;;;;;;;;5098325;28;20650;-55
2021/09/01 10:14:42;;;;;;;36.13;27.00;;;;;;;;;;5098460;28;20482;-52
2021/09/01 10:17:13;;;;;;;38.13;26.93;;;;;;;;;;5091685;28;20550;-58
2021/09/01 10:19:43;;;;;;;41.03;27.63;;;;;;;;;;5090888;28;20451;-49
2021/09/01 10:22:15;;;;;;;39.67;25.83;;;;;;;;;;5085234;28;20453;-51
2021/09/01 10:24:45;;;;;;;31.07;23.90;;;;;;;;;;5076218;28;20445;-54
2021/09/01 10:27:19;;;;;;;29.33;23.57;;;;;;;;;;5080875;28;20463;-54
2021/09/01 10:29:53;;;;;;;32.33;24.90;;;;;;;;;;5098315;28;20491;-56
2021/09/01 10:35:43;;;;;;;32.30;22.63;;;;;;;;;;5099110;28;20466;-53
2021/09/01 10:38:31;;;;;;;26.90;21.10;;;;;;;;;;5105381;28;20475;-54
2021/09/01 10:41:10;;;;;;;33.03;22.93;;;;;;;;;;5118057;28;20452;-57
2021/09/01 10:46:59;;;;;;;22.60;18.40;;;;;;;;;;5112613;28;20414;-53
2021/09/01 10:49:32;;;;;;;28.87;19.13;;;;;;;;;;5098106;28;20440;-58
2021/09/01 10:55:09;;;;;;;26.80;18.70;;;;;;;;;;5109812;28;20498;-56
2021/09/01 10:57:38;;;;;;;24.37;18.03;;;;;;;;;;5118408;28;20455;-53
2021/09/01 11:00:16;;;;;;;23.10;16.70;;;;;;;;;;5117891;28;20448;-57
2021/09/01 11:02:51;;;;;;;23.33;17.53;;;;;;;;;;5118015;28;20494;-53
2021/09/01 11:05:26;;;;;;;22.10;15.90;;;;;;;;;;5118278;28;20436;-51
2021/09/01 11:07:57;;;;;;;21.80;15.70;;;;;;;;;;5117383;28;20438;-49
2021/09/01 11:10:27;;;;;;;24.60;16.87;;;;;;;;;;5099985;28;20550;-50
2021/09/01 11:13:14;;;;;;;24.53;19.10;;;;;;;;;;5118038;28;20462;-57
2021/09/01 11:15:45;;;;;;;20.00;16.83;;;;;;;;;;5102099;28;20494;-52
2021/09/01 11:18:23;;;;;;;22.27;18.33;;;;;;;;;;5109868;28;20447;-58
2021/09/01 11:23:59;;;;;;;27.73;18.47;;;;;;;;;;5116868;28;20458;-51
2021/09/01 11:26:57;;;;;;;24.53;19.20;;;;;;;;;;5118277;28;20412;-53
2021/09/01 11:29:51;;;;;;;22.93;19.10;;;;;;;;;;5117355;28;20854;-56
2021/09/01 11:32:21;;;;;;;25.40;20.30;;;;;;;;;;5097869;28;20486;-51
2021/09/01 11:34:49;;;;;;;21.53;17.90;;;;;;;;;;5112917;28;20466;-50
2021/09/01 11:37:47;;;;;;;26.23;20.30;;;;;;;;;;5116529;28;20457;-51
2021/09/01 11:40:21;;;;;;;29.23;20.57;;;;;;;;;;5116967;28;20455;-55
2021/09/01 11:42:49;;;;;;;27.93;22.50;;;;;;;;;;5110995;28;20471;-58
2021/09/01 11:48:12;;;;;;;23.27;19.50;;;;;;;;;;5117263;28;20541;-54
2021/09/01 11:50:44;;;;;;;25.07;19.90;;;;;;;;;;5116016;28;20562;-50
2021/09/01 11:56:25;;;;;;;25.30;17.10;;;;;;;;;;5094116;28;20506;-53
2021/09/01 11:59:18;;;;;;;24.10;17.60;;;;;;;;;;5096498;28;20452;-57
2021/09/01 12:01:49;;;;;;;22.03;18.07;;;;;;;;;;5096626;28;20549;-51
2021/09/01 12:04:19;;;;;;;24.93;18.00;;;;;;;;;;5096062;28;20471;-50
2021/09/01 12:07:03;;;;;;;25.17;18.80;;;;;;;;;;5096181;28;20437;-55
2021/09/01 12:09:31;;;;;;;22.00;16.33;;;;;;;;;;5095784;28;20456;-50
2021/09/01 12:12:01;;;;;;;23.93;18.07;;;;;;;;;;5096700;28;20448;-50
2021/09/01 12:14:37;;;;;;;20.80;16.03;;;;;;;;;;5114507;28;20455;-57
2021/09/01 12:17:20;;;;;;;22.10;18.17;;;;;;;;;;5130425;28;20488;-52
2021/09/01 12:20:00;;;;;;;21.13;17.10;;;;;;;;;;5136330;28;20450;-54
2021/09/01 12:25:22;;;;;;;17.63;14.30;;;;;;;;;;5129750;28;20447;-58
2021/09/01 12:28:03;;;;;;;19.77;14.37;;;;;;;;;;5116745;28;20455;-59
2021/09/01 12:30:35;;;;;;;22.70;15.47;;;;;;;;;;5133998;28;20466;-52
2021/09/01 12:36:08;;;;;;;25.40;15.87;;;;;;;;;;5116124;28;20458;-58
2021/09/01 12:38:37;;;;;;;20.43;16.53;;;;;;;;;;5096107;28;20527;-51
2021/09/01 12:41:26;;;;;;;24.50;16.30;;;;;;;;;;5079497;28;20447;-56
2021/09/01 12:44:07;;;;;;;21.93;17.30;;;;;;;;;;5095913;28;20446;-56
2021/09/01 12:46:54;;;;;;;24.20;20.30;;;;;;;;;;5095746;28;20507;-58
2021/09/01 12:49:55;;;;;;;25.37;17.30;;;;;;;;;;5084132;28;20441;-52
2021/09/01 12:55:36;;;;;;;24.67;17.47;;;;;;;;;;5095730;28;20422;-50
2021/09/01 12:58:04;;;;;;;21.53;16.70;;;;;;;;;;5091059;28;20490;-58
2021/09/01 13:00:49;;;;;;;20.67;16.00;;;;;;;;;;5095446;28;20520;-51
2021/09/01 13:03:16;;;;;;;22.87;15.57;;;;;;;;;;5095879;28;20478;-57
2021/09/01 13:08:52;;;;;;;18.40;15.77;;;;;;;;;;5099591;28;20423;-57
2021/09/01 13:11:24;;;;;;;19.00;14.77;;;;;;;;;;5062519;28;20546;-54
2021/09/01 13:16:57;;;;;;;18.23;13.70;;;;;;;;;;5091431;28;20553;-53
2021/09/01 13:22:30;;;;;;;21.20;14.63;;;;;;;;;;5078698;28;20449;-52
2021/09/01 13:25:26;;;;;;;17.77;11.90;;;;;;;;;;5105831;28;20481;-51
2021/09/01 13:28:16;;;;;;;17.47;13.37;;;;;;;;;;5120433;28;20451;-53
2021/09/01 13:30:55;;;;;;;22.50;15.10;;;;;;;;;;5119986;28;20493;-50
2021/09/01 13:36:19;;;;;;;18.67;14.60;;;;;;;;;;5091457;28;20452;-54
2021/09/01 13:38:50;;;;;;;20.40;15.60;;;;;;;;;;5123694;28;20450;-54
2021/09/01 13:41:29;;;;;;;23.30;15.90;;;;;;;;;;5139720;28;20446;-51
2021/09/01 13:44:00;;;;;;;26.30;15.80;;;;;;;;;;5139758;28;20450;-53
2021/09/01 13:46:33;;;;;;;21.90;16.43;;;;;;;;;;5139931;28;20457;-57
2021/09/01 13:49:03;;;;;;;18.83;13.93;;;;;;;;;;5139890;28;20519;-54
2021/09/01 13:51:31;;;;;;;24.27;15.20;;;;;;;;;;5138471;28;20460;-50
2021/09/01 13:54:10;;;;;;;21.73;15.07;;;;;;;;;;5139966;28;20460;-54
2021/09/01 13:57:02;;;;;;;20.73;16.10;;;;;;;;;;5139713;28;20442;-56
2021/09/01 13:59:39;;;;;;;21.70;14.70;;;;;;;;;;5139241;28;20483;-53
2021/09/01 14:02:18;;;;;;;20.00;15.73;;;;;;;;;;5133251;28;20477;-52
2021/09/01 14:04:45;;;;;;;21.63;15.30;;;;;;;;;;5118163;28;20443;-56
2021/09/01 14:07:16;;;;;;;24.00;17.67;;;;;;;;;;5118360;28;20439;-57
2021/09/01 14:09:59;;;;;;;23.00;18.33;;;;;;;;;;5118664;28;20440;-53
2021/09/01 14:12:47;;;;;;;28.07;17.60;;;;;;;;;;5119209;28;20516;-55
2021/09/01 14:15:15;;;;;;;24.77;16.80;;;;;;;;;;5138557;27;20776;-54
2021/09/01 14:17:49;;;;;;;31.23;17.97;;;;;;;;;;5144322;27;20442;-55
2021/09/01 14:20:24;;;;;;;26.63;20.30;;;;;;;;;;5138923;28;20454;-53
2021/09/01 14:22:56;;;;;;;30.50;18.17;;;;;;;;;;5130385;28;20461;-54
2021/09/01 14:25:32;;;;;;;30.10;19.00;;;;;;;;;;5120236;28;20485;-54
2021/09/01 14:28:01;;;;;;;24.30;18.87;;;;;;;;;;5130461;28;20472;-55
2021/09/01 14:30:30;;;;;;;25.73;18.73;;;;;;;;;;5117802;28;20542;-52
2021/09/01 14:36:03;;;;;;;30.83;21.90;;;;;;;;;;5160056;27;20431;-51
2021/09/01 14:38:53;;;;;;;32.57;20.80;;;;;;;;;;5147610;27;20457;-56
2021/09/01 14:41:23;;;;;;;33.13;19.10;;;;;;;;;;5121494;28;20447;-53
2021/09/01 14:43:52;;;;;;;27.13;19.20;;;;;;;;;;5117040;28;20486;-54
2021/09/01 14:46:20;;;;;;;25.40;17.73;;;;;;;;;;5137139;27;20442;-55
2021/09/01 14:51:53;;;;;;;27.07;16.23;;;;;;;;;;5117992;28;20469;-51
2021/09/01 14:54:21;;;;;;;28.80;18.30;;;;;;;;;;5105392;28;20471;-54
2021/09/01 14:56:53;;;;;;;33.37;18.37;;;;;;;;;;5101008;28;20458;-52
2021/09/01 15:02:49;;;;;;;31.60;18.50;;;;;;;;;;5097434;28;20438;-55
2021/09/01 15:05:21;;;;;;;24.50;16.43;;;;;;;;;;5096590;28;20444;-51
2021/09/01 15:08:05;;;;;;;33.47;21.93;;;;;;;;;;5109927;28;20478;-56
2021/09/01 15:22:21;;;;;;;30.58;18.60;;;;;;;;;;6229527;22;1444295;-52
2021/09/01 15:24:48;;;;;;;35.93;20.60;;;;;;;;;;6280064;23;20208;-56
2021/09/01 15:27:49;;;;;;;26.80;17.50;;;;;;;;;;6279261;22;20407;-51
2021/09/01 15:30:26;;;;;;;31.23;20.50;;;;;;;;;;6280533;22;20427;-54
2021/09/01 15:35:59;;;;;;;23.97;17.63;;;;;;;;;;6278544;23;20430;-53
2021/09/01 15:41:32;;;;;;;28.90;20.37;;;;;;;;;;6270684;22;20459;-59
2021/09/01 15:44:08;;;;;;;29.30;19.40;;;;;;;;;;6278532;22;20403;-53
2021/09/01 15:47:11;;;;;;;27.47;20.57;;;;;;;;;;6279199;23;20385;-51
2021/09/01 15:49:45;;;;;;;28.70;19.67;;;;;;;;;;6277556;23;20408;-59
2021/09/01 15:55:20;;;;;;;34.07;21.93;;;;;;;;;;6266764;23;20444;-53
2021/09/01 15:58:11;;;;;;;31.33;19.77;;;;;;;;;;6249609;23;20739;-58
2021/09/01 16:00:53;;;;;;;31.80;21.83;;;;;;;;;;6249597;23;20419;-54
2021/09/01 16:06:25;;;;;;;28.60;19.80;;;;;;;;;;6249321;23;20402;-55
2021/09/01 16:09:18;;;;;;;27.57;19.40;;;;;;;;;;6224221;23;20913;-54
2021/09/01 16:14:54;;;;;;;36.50;20.53;;;;;;;;;;6246941;23;20401;-55
2021/09/01 16:17:47;;;;;;;27.00;19.50;;;;;;;;;;6249142;23;20405;-51
2021/09/01 16:20:33;;;;;;;25.80;19.23;;;;;;;;;;6250001;23;20453;-55
2021/09/01 16:23:22;;;;;;;28.60;18.07;;;;;;;;;;6243443;23;20406;-53
2021/09/01 16:25:53;;;;;;;26.47;17.27;;;;;;;;;;6242584;23;20405;-55
2021/09/01 16:28:23;;;;;;;27.73;19.63;;;;;;;;;;6242975;23;20409;-56
2021/09/01 16:31:18;;;;;;;24.80;17.57;;;;;;;;;;6242563;23;20434;-53
2021/09/01 16:33:57;;;;;;;26.07;17.87;;;;;;;;;;6242655;23;20410;-55
2021/09/01 16:36:26;;;;;;;32.90;19.60;;;;;;;;;;6243145;23;20397;-56
2021/09/01 16:38:57;;;;;;;34.40;20.20;;;;;;;;;;6243395;23;20398;-53
2021/09/01 16:41:34;;;;;;;26.50;16.27;;;;;;;;;;6243054;23;20421;-58
2021/09/01 16:44:05;;;;;;;21.60;15.80;;;;;;;;;;6243070;23;20413;-54
2021/09/01 16:46:33;;;;;;;32.63;21.20;;;;;;;;;;6242243;23;20460;-59
2021/09/01 16:52:09;;;;;;;25.50;17.40;;;;;;;;;;6242611;23;20456;-55
2021/09/01 16:54:39;;;;;;;28.83;18.73;;;;;;;;;;6242815;23;20401;-54
2021/09/01 16:57:09;;;;;;;28.13;19.30;;;;;;;;;;6242920;23;20469;-51
2021/09/01 16:59:40;;;;;;;27.63;19.80;;;;;;;;;;6243301;23;20382;-55
2021/09/01 17:05:07;;;;;;;28.20;20.47;;;;;;;;;;6241732;23;20453;-53
2021/09/01 17:07:43;;;;;;;29.97;20.80;;;;;;;;;;6242656;23;20421;-54
2021/09/01 17:10:13;;;;;;;31.23;20.80;;;;;;;;;;6242865;23;20425;-69
2021/09/01 17:13:12;;;;;;;26.53;18.87;;;;;;;;;;6241399;23;20402;-56